createdAt,value
2022-09-09T00:02:45.403Z,1.88
2022-09-09T00:06:00.072Z,1.20
2022-09-09T00:09:20.695Z,1.25
2022-09-09T00:12:34.103Z,1.40
2022-09-09T00:16:01.589Z,1.42
2022-09-09T00:19:02.879Z,1.10
2022-09-09T00:22:14.176Z,1.10
2022-09-09T00:25:17.819Z,1.30
2022-09-09T00:28:20.196Z,1.20
2022-09-09T00:31:23.917Z,1.20
2022-09-09T00:34:27.336Z,1.35
2022-09-09T00:37:29.558Z,1.25
2022-09-09T00:40:33.642Z,1.67
2022-09-09T00:43:38.947Z,1.27
2022-09-09T00:46:40.994Z,1.35
2022-09-09T00:49:48.814Z,1.20
2022-09-09T00:52:53.296Z,1.20
2022-09-09T00:55:57.280Z,0.85
2022-09-09T00:59:07.951Z,1.05
2022-09-09T01:02:17.546Z,1.10
2022-09-09T01:05:31.185Z,1.23
2022-09-09T01:08:51.385Z,1.50
2022-09-09T01:12:11.293Z,1.00
2022-09-09T01:15:15.092Z,1.20
2022-09-09T01:18:18.418Z,1.10
2022-09-09T01:21:27.573Z,1.17
2022-09-09T01:24:35.895Z,1.50
2022-09-09T01:27:37.939Z,1.27
2022-09-09T01:30:40.156Z,1.50
2022-09-09T01:33:41.450Z,1.60
2022-09-09T01:36:48.734Z,1.33
2022-09-09T01:39:50.021Z,1.40
2022-09-09T01:42:51.658Z,1.42
2022-09-09T01:45:55.048Z,1.40
2022-09-09T01:48:57.161Z,1.33
2022-09-09T01:51:58.722Z,1.42
2022-09-09T01:55:00.010Z,1.58
2022-09-09T01:58:12.398Z,1.60
2022-09-09T02:01:16.433Z,1.60
2022-09-09T02:04:28.462Z,1.30
2022-09-09T02:07:29.671Z,1.25
2022-09-09T02:10:39.711Z,1.25
2022-09-09T02:13:41.709Z,1.58
2022-09-09T02:16:49.343Z,1.20
2022-09-09T02:19:54.383Z,1.23
2022-09-09T02:22:56.870Z,1.50
2022-09-09T02:25:59.492Z,1.52
2022-09-09T02:29:02.327Z,1.40
2022-09-09T02:32:06.400Z,1.33
2022-09-09T02:35:12.689Z,1.30
2022-09-09T02:38:15.962Z,1.27
2022-09-09T02:41:19.451Z,1.38
2022-09-09T02:44:20.778Z,1.45
2022-09-09T02:47:47.571Z,1.40
2022-09-09T02:50:51.706Z,1.45
2022-09-09T02:54:08.591Z,1.33
2022-09-09T02:57:29.113Z,1.30
2022-09-09T03:00:31.010Z,1.23
2022-09-09T03:03:32.602Z,1.60
2022-09-09T03:06:33.855Z,1.58
2022-09-09T03:09:35.109Z,1.35
2022-09-09T03:12:36.345Z,1.70
2022-09-09T03:15:38.195Z,1.20
2022-09-09T03:18:39.449Z,1.50
2022-09-09T03:21:40.659Z,1.27
2022-09-09T03:24:42.103Z,1.52
2022-09-09T03:27:43.337Z,1.33
2022-09-09T03:30:44.780Z,1.42
2022-09-09T03:33:46.030Z,1.60
2022-09-09T03:36:49.577Z,1.60
2022-09-09T03:39:50.898Z,1.17
2022-09-09T03:42:52.142Z,1.52
2022-09-09T03:45:54.032Z,1.40
2022-09-09T03:48:55.349Z,1.35
2022-09-09T03:51:58.029Z,1.30
2022-09-09T03:54:59.323Z,1.80
2022-09-09T03:58:01.243Z,1.42
2022-09-09T04:01:06.493Z,1.30
2022-09-09T04:04:08.558Z,1.38
2022-09-09T04:07:09.889Z,1.30
2022-09-09T04:10:11.536Z,1.42
2022-09-09T04:13:13.427Z,1.40
2022-09-09T04:16:15.690Z,1.50
2022-09-09T04:19:17.049Z,1.60
2022-09-09T04:22:18.282Z,1.25
2022-09-09T04:25:19.516Z,1.42
2022-09-09T04:28:21.987Z,1.70
2022-09-09T04:31:26.706Z,1.40
2022-09-09T04:34:27.979Z,1.33
2022-09-09T04:37:29.318Z,1.17
2022-09-09T04:40:31.091Z,1.35
2022-09-09T04:43:32.757Z,1.40
2022-09-09T04:46:35.269Z,1.42
2022-09-09T04:49:37.260Z,1.40
2022-09-09T04:52:38.552Z,1.15
2022-09-09T04:55:39.781Z,1.23
2022-09-09T04:58:43.162Z,1.10
2022-09-09T05:01:44.439Z,1.10
2022-09-09T05:04:45.804Z,1.20
2022-09-09T05:07:48.090Z,1.02
2022-09-09T05:10:49.365Z,0.90
2022-09-09T05:13:52.275Z,1.25
2022-09-09T05:16:53.502Z,1.20
2022-09-09T05:19:54.738Z,1.20
2022-09-09T05:22:57.299Z,1.20
2022-09-09T05:25:59.344Z,1.25
2022-09-09T05:29:01.369Z,1.00
2022-09-09T05:32:02.866Z,1.23
2022-09-09T05:35:04.997Z,1.45
2022-09-09T05:38:06.272Z,0.82
2022-09-09T05:41:08.014Z,0.90
2022-09-09T05:44:09.241Z,1.42
2022-09-09T05:47:10.637Z,1.08
2022-09-09T05:50:12.034Z,1.23
2022-09-09T05:53:13.334Z,1.20
2022-09-09T05:56:18.447Z,1.00
2022-09-09T05:59:19.740Z,1.20
2022-09-09T06:02:21.108Z,1.10
2022-09-09T06:05:23.796Z,0.80
2022-09-09T06:08:25.115Z,0.75
2022-09-09T06:11:27.661Z,0.90
2022-09-09T06:14:28.965Z,1.02
2022-09-09T06:17:30.230Z,0.90
2022-09-09T06:20:32.501Z,0.70
2022-09-09T06:23:37.866Z,0.90
2022-09-09T06:26:41.939Z,1.17
2022-09-09T06:29:43.262Z,1.30
2022-09-09T06:32:44.556Z,1.40
2022-09-09T06:35:52.914Z,0.88
2022-09-09T06:38:54.426Z,0.50
2022-09-09T06:41:58.578Z,1.00
2022-09-09T06:48:01.094Z,0.80
2022-09-09T06:51:02.773Z,0.80
2022-09-09T06:54:05.285Z,0.47
2022-09-09T06:57:27.103Z,0.68
2022-09-09T07:00:31.261Z,0.80
2022-09-09T07:03:32.860Z,1.33
2022-09-09T07:06:44.259Z,0.82
2022-09-09T07:09:46.440Z,0.90
2022-09-09T07:12:53.764Z,0.85
2022-09-09T07:15:55.087Z,0.70
2022-09-09T07:18:59.260Z,0.60
2022-09-09T07:22:00.500Z,1.02
2022-09-09T07:25:03.170Z,0.85
2022-09-09T07:28:04.415Z,1.15
2022-09-09T07:31:06.264Z,1.00
2022-09-09T07:34:07.924Z,0.82
2022-09-09T07:37:12.561Z,0.80
2022-09-09T07:40:13.950Z,0.85
2022-09-09T07:43:17.400Z,1.20
2022-09-09T07:46:20.346Z,0.90
2022-09-09T07:49:27.626Z,0.90
2022-09-09T07:52:32.260Z,1.08
2022-09-09T07:55:33.521Z,0.88
2022-09-09T07:58:38.298Z,0.80
2022-09-09T08:01:44.817Z,1.60
2022-09-09T08:04:46.501Z,1.48
2022-09-09T08:07:48.048Z,0.93
2022-09-09T08:10:49.279Z,0.93
2022-09-09T08:13:54.331Z,0.82
2022-09-09T08:16:57.122Z,1.00
2022-09-09T08:19:58.352Z,1.10
2022-09-09T08:22:59.895Z,0.90
2022-09-09T08:26:05.478Z,0.85
2022-09-09T08:29:07.567Z,1.17
2022-09-09T08:32:09.615Z,0.98
2022-09-09T08:35:10.901Z,0.77
2022-09-09T08:38:12.164Z,1.10
2022-09-09T08:41:31.783Z,1.10
2022-09-09T08:44:39.110Z,1.15
2022-09-09T08:47:41.780Z,0.85
2022-09-09T08:50:44.213Z,1.10
2022-09-09T08:53:47.355Z,0.80
2022-09-09T08:56:48.989Z,0.73
2022-09-09T08:59:51.500Z,0.70
2022-09-09T09:03:02.865Z,0.73
2022-09-09T09:06:11.809Z,0.90
2022-09-09T09:09:31.759Z,0.60
2022-09-09T09:12:39.629Z,0.82
2022-09-09T09:15:42.599Z,0.85
2022-09-09T09:18:43.917Z,0.70
2022-09-09T09:21:48.878Z,0.70
2022-09-09T09:24:52.192Z,0.98
2022-09-09T09:27:53.451Z,0.65
2022-09-09T09:31:02.484Z,0.88
2022-09-09T09:34:03.862Z,0.63
2022-09-09T09:37:13.187Z,0.93
2022-09-09T09:40:18.899Z,0.77
2022-09-09T09:43:21.818Z,0.93
2022-09-09T09:46:24.975Z,0.90
2022-09-09T09:49:26.426Z,0.63
2022-09-09T09:52:29.338Z,0.70
2022-09-09T09:55:32.047Z,1.38
2022-09-09T09:58:45.532Z,0.63
2022-09-09T10:01:46.948Z,0.77
2022-09-09T10:04:48.552Z,0.90
2022-09-09T10:08:10.105Z,0.75
2022-09-09T10:11:35.190Z,0.77
2022-09-09T10:14:45.580Z,0.82
2022-09-09T10:17:46.800Z,0.70
2022-09-09T10:20:51.909Z,0.80
2022-09-09T10:24:16.295Z,0.90
2022-09-09T10:27:24.324Z,0.70
2022-09-09T10:30:34.589Z,1.13
2022-09-09T10:34:02.341Z,0.60
2022-09-09T10:37:07.565Z,0.65
2022-09-09T10:40:32.482Z,0.73
2022-09-09T10:43:52.402Z,0.57
2022-09-09T10:46:56.459Z,0.40
2022-09-09T10:50:00.775Z,0.60
2022-09-09T10:53:14.084Z,0.63
2022-09-09T10:56:17.428Z,0.95
2022-09-09T10:59:23.490Z,0.50
2022-09-09T11:02:29.156Z,0.60
2022-09-09T11:05:48.686Z,0.80
2022-09-09T11:08:52.707Z,1.00
2022-09-09T11:11:57.334Z,0.80
2022-09-09T11:15:02.747Z,0.60
2022-09-09T11:18:05.342Z,1.10
2022-09-09T11:21:10.049Z,0.70
2022-09-09T11:24:22.536Z,0.80
2022-09-09T11:27:38.559Z,0.80
2022-09-09T11:30:58.503Z,0.70
2022-09-09T11:34:15.122Z,1.00
2022-09-09T11:37:19.143Z,1.05
2022-09-09T11:40:27.992Z,0.77
2022-09-09T11:43:31.840Z,0.70
2022-09-09T11:46:35.337Z,0.93
2022-09-09T11:49:40.240Z,0.70
2022-09-09T11:52:49.369Z,1.05
2022-09-09T11:56:23.511Z,0.80
2022-09-09T11:59:26.203Z,1.10
2022-09-09T12:02:29.026Z,0.90
2022-09-09T12:05:41.778Z,0.60
2022-09-09T12:08:46.338Z,0.80
2022-09-09T12:11:47.597Z,0.70
2022-09-09T12:15:08.156Z,0.70
2022-09-09T12:18:15.609Z,0.90
2022-09-09T12:21:34.534Z,0.60
2022-09-09T12:24:40.326Z,0.70
2022-09-09T12:27:46.134Z,0.57
2022-09-09T12:30:56.407Z,0.60
2022-09-09T12:34:03.805Z,0.85
2022-09-09T12:37:14.919Z,0.93
2022-09-09T12:40:18.918Z,0.63
2022-09-09T12:43:22.221Z,0.80
2022-09-09T12:46:42.950Z,1.10
2022-09-09T12:49:44.661Z,0.80
2022-09-09T12:52:48.076Z,0.80
2022-09-09T12:55:57.541Z,1.10
2022-09-09T12:58:59.201Z,0.65
2022-09-09T13:02:00.718Z,0.60
2022-09-09T13:05:17.322Z,0.60
2022-09-09T13:08:21.361Z,0.57
2022-09-09T13:11:36.686Z,0.50
2022-09-09T13:14:40.874Z,0.47
2022-09-09T13:17:42.190Z,0.50
2022-09-09T13:20:47.289Z,0.75
2022-09-09T13:23:53.091Z,0.65
2022-09-09T13:27:18.664Z,0.60
2022-09-09T13:30:23.752Z,0.40
2022-09-09T13:33:29.970Z,0.60
2022-09-09T13:36:32.285Z,0.70
2022-09-09T13:39:35.569Z,0.93
2022-09-09T13:42:39.019Z,1.13
2022-09-09T13:45:40.336Z,0.65
2022-09-09T13:48:41.970Z,0.75
2022-09-09T13:51:47.545Z,0.77
2022-09-09T13:54:52.523Z,0.93
2022-09-09T13:57:57.890Z,0.70
2022-09-09T14:00:59.168Z,0.60
2022-09-09T14:04:00.430Z,0.60
2022-09-09T14:07:02.118Z,0.60
2022-09-09T14:10:03.552Z,0.60
2022-09-09T14:13:04.811Z,0.50
2022-09-09T14:16:06.240Z,0.55
2022-09-09T14:19:08.800Z,0.50
2022-09-09T14:22:10.030Z,0.40
2022-09-09T14:25:12.322Z,0.60
2022-09-09T14:28:14.391Z,0.50
2022-09-09T14:31:15.774Z,0.90
2022-09-09T14:34:17.164Z,0.32
2022-09-09T14:37:18.687Z,0.60
2022-09-09T14:40:19.939Z,0.63
2022-09-09T14:43:21.310Z,0.60
2022-09-09T14:46:23.145Z,0.57
2022-09-09T14:49:24.481Z,0.70
2022-09-09T14:52:26.575Z,0.60
2022-09-09T14:55:29.669Z,0.60
2022-09-09T14:58:32.467Z,0.98
2022-09-09T15:01:34.980Z,1.40
2022-09-09T15:04:36.472Z,0.73
2022-09-09T15:07:38.050Z,1.02
2022-09-09T15:10:40.018Z,1.00
2022-09-09T15:13:42.036Z,0.88
2022-09-09T15:16:43.315Z,0.82
2022-09-09T15:19:44.569Z,0.80
2022-09-09T15:22:45.814Z,1.05
2022-09-09T15:25:53.916Z,0.82
2022-09-09T15:28:55.710Z,0.65
2022-09-09T15:31:57.234Z,0.60
2022-09-09T15:34:58.517Z,0.80
2022-09-09T15:38:02.367Z,0.98
2022-09-09T15:41:03.784Z,0.82
2022-09-09T15:44:05.013Z,0.70
2022-09-09T15:47:06.283Z,0.60
2022-09-09T15:50:07.662Z,0.70
2022-09-09T15:53:08.974Z,1.13
2022-09-09T15:56:10.226Z,0.73
2022-09-09T15:59:12.124Z,1.05
2022-09-09T16:02:13.450Z,1.30
2022-09-09T16:05:14.887Z,1.13
2022-09-09T16:08:16.149Z,0.80
2022-09-09T16:11:20.671Z,0.90
2022-09-09T16:14:22.767Z,0.70
2022-09-09T16:17:24.040Z,0.52
2022-09-09T16:20:26.371Z,0.90
2022-09-09T16:23:27.988Z,1.42
2022-09-09T16:26:30.162Z,0.90
2022-09-09T16:29:31.410Z,0.90
2022-09-09T16:32:32.637Z,1.27
2022-09-09T16:35:37.059Z,0.60
2022-09-09T16:38:38.486Z,0.90
2022-09-09T16:41:40.535Z,0.80
2022-09-09T16:44:42.227Z,0.70
2022-09-09T16:47:44.093Z,0.80
2022-09-09T16:50:45.551Z,1.10
2022-09-09T16:53:46.950Z,0.80
2022-09-09T16:56:48.930Z,0.82
2022-09-09T16:59:51.138Z,0.98
2022-09-09T17:02:52.443Z,1.15
2022-09-09T17:05:53.888Z,0.90
2022-09-09T17:08:56.018Z,0.85
2022-09-09T17:11:57.261Z,0.93
2022-09-09T17:15:00.006Z,1.13
2022-09-09T17:18:01.245Z,1.05
2022-09-09T17:21:07.522Z,0.63
2022-09-09T17:24:09.026Z,0.65
2022-09-09T17:27:10.297Z,1.17
2022-09-09T17:30:11.888Z,0.95
2022-09-09T17:33:13.688Z,0.73
2022-09-09T17:36:16.485Z,0.80
2022-09-09T17:39:17.762Z,1.00
2022-09-09T17:42:19.171Z,0.90
2022-09-09T17:45:20.619Z,0.90
2022-09-09T17:48:21.892Z,0.75
2022-09-09T17:51:28.830Z,0.77
2022-09-09T17:54:30.136Z,0.80
2022-09-09T17:57:32.068Z,0.70
2022-09-09T18:00:33.316Z,0.90
2022-09-09T18:03:35.587Z,0.80
2022-09-09T18:06:38.411Z,1.35
2022-09-09T18:09:39.669Z,0.70
2022-09-09T18:12:42.231Z,0.90
2022-09-09T18:15:49.758Z,0.93
2022-09-09T18:18:51.799Z,0.60
2022-09-09T18:21:54.683Z,0.90
2022-09-09T18:24:56.864Z,0.80
2022-09-09T18:27:58.422Z,0.90
2022-09-09T18:30:59.672Z,0.80
2022-09-09T18:34:02.834Z,0.90
2022-09-09T18:37:04.623Z,1.15
2022-09-09T18:40:06.167Z,0.68
2022-09-09T18:43:08.324Z,0.68
2022-09-09T18:46:10.315Z,0.60
2022-09-09T18:49:11.773Z,0.63
2022-09-09T18:52:13.175Z,1.20
2022-09-09T18:55:14.431Z,0.70
2022-09-09T18:58:15.731Z,0.63
2022-09-09T19:01:17.045Z,0.70
2022-09-09T19:04:19.129Z,1.27
2022-09-09T19:07:21.666Z,1.10
2022-09-09T19:10:23.008Z,0.80
2022-09-09T19:13:24.450Z,0.77
2022-09-09T19:16:29.004Z,1.10
2022-09-09T19:19:31.898Z,0.80
2022-09-09T19:22:33.136Z,1.15
2022-09-09T19:25:38.159Z,0.93
2022-09-09T19:28:40.158Z,1.38
2022-09-09T19:31:55.126Z,1.10
2022-09-09T19:35:03.977Z,0.73
2022-09-09T19:38:05.267Z,0.75
2022-09-09T19:41:08.122Z,1.10
2022-09-09T19:44:11.885Z,1.10
2022-09-09T19:47:14.808Z,1.20
2022-09-09T19:50:16.048Z,1.02
2022-09-09T19:53:17.854Z,1.00
2022-09-09T19:56:19.811Z,0.90
2022-09-09T19:59:21.096Z,0.95
2022-09-09T20:02:22.379Z,0.90
2022-09-09T20:05:23.691Z,1.23
2022-09-09T20:08:27.288Z,1.10
2022-09-09T20:11:28.557Z,1.17
2022-09-09T20:14:29.855Z,1.23
2022-09-09T20:17:31.076Z,1.35
2022-09-09T20:20:32.324Z,1.63
2022-09-09T20:23:33.718Z,0.95
2022-09-09T20:26:37.388Z,1.13
2022-09-09T20:29:39.190Z,1.10
2022-09-09T20:32:40.437Z,1.23
2022-09-09T20:35:41.689Z,1.00
2022-09-09T20:38:48.191Z,1.95
2022-09-09T20:41:49.848Z,1.30
2022-09-09T20:44:51.080Z,1.05
2022-09-09T20:47:52.325Z,1.40
2022-09-09T20:50:53.994Z,1.30
2022-09-09T20:53:58.932Z,1.27
2022-09-09T20:57:00.372Z,1.30
2022-09-09T21:00:02.090Z,1.40
2022-09-09T21:03:03.341Z,1.83
2022-09-09T21:06:05.179Z,1.58
2022-09-09T21:09:06.581Z,1.30
2022-09-09T21:12:08.555Z,1.38
2022-09-09T21:15:10.147Z,1.40
2022-09-09T21:18:11.488Z,1.73
2022-09-09T21:21:13.055Z,0.93
2022-09-09T21:24:14.343Z,0.90
2022-09-09T21:27:15.598Z,1.10
2022-09-09T21:30:16.839Z,0.82
2022-09-09T21:33:19.319Z,1.20
2022-09-09T21:36:20.607Z,1.20
2022-09-09T21:39:21.835Z,1.17
2022-09-09T21:42:23.092Z,1.60
2022-09-09T21:45:25.248Z,1.35
2022-09-09T21:48:26.545Z,1.27
2022-09-09T21:51:27.839Z,1.50
2022-09-09T21:54:31.576Z,1.10
2022-09-09T21:57:32.870Z,1.55
2022-09-09T22:00:35.783Z,2.30
2022-09-09T22:03:38.903Z,1.48
2022-09-09T22:06:40.202Z,1.35
2022-09-09T22:09:41.431Z,1.30
2022-09-09T22:12:42.707Z,1.13
2022-09-09T22:15:44.663Z,1.30
2022-09-09T22:18:50.388Z,1.30
2022-09-09T22:21:51.662Z,1.52
2022-09-09T22:24:52.950Z,1.55
2022-09-09T22:27:54.233Z,1.48
2022-09-09T22:30:55.757Z,1.35
2022-09-09T22:33:57.567Z,1.05
2022-09-09T22:36:59.838Z,1.10
2022-09-09T22:40:01.174Z,1.08
2022-09-09T22:43:02.440Z,1.55
2022-09-09T22:46:04.199Z,1.20
2022-09-09T22:49:05.679Z,1.20
2022-09-09T22:52:08.689Z,1.40
2022-09-09T22:55:09.910Z,1.25
2022-09-09T22:58:11.731Z,1.38
2022-09-09T23:01:16.466Z,1.45
2022-09-09T23:04:22.140Z,1.48
2022-09-09T23:07:23.382Z,1.40
2022-09-09T23:10:24.986Z,1.30
2022-09-09T23:13:26.484Z,1.50
2022-09-09T23:16:33.000Z,1.38
2022-09-09T23:19:34.242Z,1.30
2022-09-09T23:22:36.281Z,1.50
2022-09-09T23:25:37.561Z,1.15
2022-09-09T23:28:43.063Z,1.70
2022-09-09T23:31:44.905Z,1.17
2022-09-09T23:34:47.595Z,1.42
2022-09-09T23:37:48.839Z,1.80
2022-09-09T23:40:50.070Z,1.60
2022-09-09T23:43:52.469Z,1.90
2022-09-09T23:46:53.691Z,2.35
2022-09-09T23:49:54.906Z,1.80
2022-09-09T23:52:56.312Z,1.85
2022-09-09T23:55:59.277Z,2.55
2022-09-09T23:59:00.814Z,2.28
